createdAt,value
2022-08-23T00:00:37.108Z,24.2
2022-08-23T00:01:41.822Z,24.2
2022-08-23T00:02:49.753Z,24.3
2022-08-23T00:03:53.658Z,24.1
2022-08-23T00:06:02.402Z,24.2
2022-08-23T00:07:04.620Z,24.3
2022-08-23T00:08:07.089Z,24.2
2022-08-23T00:09:09.294Z,24.1
2022-08-23T00:10:11.805Z,24.2
2022-08-23T00:11:14.282Z,24.1
2022-08-23T00:12:16.776Z,24
2022-08-23T00:13:19.111Z,24.1
2022-08-23T00:14:21.577Z,24
2022-08-23T00:15:23.774Z,24.1
2022-08-23T00:16:26.252Z,24.2
2022-08-23T00:18:33.443Z,24.1
2022-08-23T00:19:35.950Z,24
2022-08-23T00:20:38.143Z,24
2022-08-23T00:21:40.619Z,23.9
2022-08-23T00:22:43.094Z,24.1
2022-08-23T00:23:45.292Z,24
2022-08-23T00:24:47.504Z,24
2022-08-23T00:25:49.980Z,24.1
2022-08-23T00:26:52.446Z,24
2022-08-23T00:27:53.829Z,24.1
2022-08-23T00:28:56.593Z,23.9
2022-08-23T00:29:58.911Z,24
2022-08-23T00:31:01.380Z,24
2022-08-23T00:32:03.880Z,24
2022-08-23T00:33:06.367Z,24
2022-08-23T00:34:08.866Z,24
2022-08-23T00:35:11.354Z,24.1
2022-08-23T00:36:17.821Z,23.9
2022-08-23T00:37:20.008Z,24.1
2022-08-23T00:39:27.198Z,24
2022-08-23T00:40:29.688Z,24
2022-08-23T00:41:32.168Z,24.1
2022-08-23T00:42:34.643Z,24
2022-08-23T00:43:36.822Z,23.9
2022-08-23T00:44:39.304Z,24
2022-08-23T00:45:41.788Z,24
2022-08-23T00:46:43.983Z,24.1
2022-08-23T00:47:46.173Z,24
2022-08-23T00:48:48.658Z,23.9
2022-08-23T00:49:51.142Z,24
2022-08-23T00:50:53.619Z,24
2022-08-23T00:51:56.089Z,23.9
2022-08-23T00:52:58.300Z,24
2022-08-23T00:54:00.513Z,24.1
2022-08-23T00:55:03.003Z,23.9
2022-08-23T00:56:05.485Z,24
2022-08-23T00:57:07.685Z,23.9
2022-08-23T00:58:10.163Z,24.1
2022-08-23T00:59:12.668Z,23.9
2022-08-23T01:00:14.859Z,23.9
2022-08-23T01:01:18.456Z,23.9
2022-08-23T01:02:21.160Z,24
2022-08-23T01:03:23.708Z,24
2022-08-23T01:04:25.907Z,24.1
2022-08-23T01:05:28.083Z,24
2022-08-23T01:06:30.548Z,24
2022-08-23T01:07:34.232Z,24
2022-08-23T01:08:36.708Z,23.9
2022-08-23T01:09:39.194Z,23.9
2022-08-23T01:10:41.920Z,24.1
2022-08-23T01:11:44.126Z,24
2022-08-23T01:12:46.613Z,24
2022-08-23T01:13:49.093Z,24
2022-08-23T01:14:51.565Z,24
2022-08-23T01:15:54.048Z,23.9
2022-08-23T01:16:56.517Z,23.9
2022-08-23T01:17:58.556Z,24
2022-08-23T01:19:01.548Z,23.9
2022-08-23T01:20:04.026Z,23.9
2022-08-23T01:22:12.093Z,23.9
2022-08-23T01:23:14.309Z,24
2022-08-23T01:25:21.773Z,23.8
2022-08-23T01:26:24.256Z,24.1
2022-08-23T01:27:26.440Z,23.9
2022-08-23T01:28:28.927Z,23.9
2022-08-23T01:29:30.824Z,24
2022-08-23T01:30:33.301Z,24
2022-08-23T01:31:35.770Z,24.1
2022-08-23T01:32:38.245Z,23.9
2022-08-23T01:33:40.716Z,24
2022-08-23T01:35:48.187Z,23.9
2022-08-23T01:36:50.665Z,24
2022-08-23T01:37:53.140Z,23.9
2022-08-23T01:38:55.813Z,24
2022-08-23T01:39:58.439Z,24
2022-08-23T01:41:01.226Z,23.9
2022-08-23T01:43:08.148Z,23.9
2022-08-23T01:44:10.348Z,24
2022-08-23T01:45:12.545Z,23.9
2022-08-23T01:46:14.726Z,24
2022-08-23T01:47:16.934Z,23.9
2022-08-23T01:48:19.404Z,24
2022-08-23T01:49:21.874Z,23.9
2022-08-23T01:50:24.154Z,23.9
2022-08-23T01:51:26.862Z,23.9
2022-08-23T01:52:29.334Z,23.9
2022-08-23T01:53:31.802Z,23.9
2022-08-23T01:54:34.014Z,23.9
2022-08-23T01:55:36.486Z,23.9
2022-08-23T01:56:39.710Z,23.8
2022-08-23T01:57:41.633Z,23.9
2022-08-23T01:58:47.606Z,24
2022-08-23T01:59:49.797Z,23.9
2022-08-23T02:00:52.266Z,23.9
2022-08-23T02:01:54.927Z,23.9
2022-08-23T02:02:57.737Z,23.9
2022-08-23T02:05:05.136Z,24
2022-08-23T02:06:07.611Z,23.9
2022-08-23T02:07:10.117Z,23.9
2022-08-23T02:08:12.595Z,23.8
2022-08-23T02:10:20.056Z,23.9
2022-08-23T02:11:22.303Z,24
2022-08-23T02:12:24.210Z,23.9
2022-08-23T02:13:26.433Z,23.9
2022-08-23T02:14:29.753Z,23.9
2022-08-23T02:15:31.963Z,24
2022-08-23T02:16:34.452Z,23.9
2022-08-23T02:17:36.928Z,23.9
2022-08-23T02:18:39.397Z,23.9
2022-08-23T02:19:41.306Z,23.9
2022-08-23T02:20:42.933Z,23.8
2022-08-23T02:21:45.061Z,23.9
2022-08-23T02:22:48.641Z,23.9
2022-08-23T02:23:51.123Z,23.9
2022-08-23T02:24:53.600Z,23.9
2022-08-23T02:25:56.081Z,24
2022-08-23T02:26:58.550Z,24
2022-08-23T02:28:05.020Z,23.9
2022-08-23T02:29:07.501Z,23.9
2022-08-23T02:30:09.698Z,23.9
2022-08-23T02:31:12.179Z,23.9
2022-08-23T02:32:15.737Z,23.9
2022-08-23T02:33:18.369Z,23.9
2022-08-23T02:34:22.030Z,23.9
2022-08-23T02:35:30.416Z,23.9
2022-08-23T02:36:32.900Z,23.9
2022-08-23T02:37:34.830Z,23.9
2022-08-23T02:38:37.028Z,23.9
2022-08-23T02:39:39.652Z,23.9
2022-08-23T02:40:42.208Z,23.9
2022-08-23T02:41:44.671Z,23.9
2022-08-23T02:42:46.872Z,23.9
2022-08-23T02:43:49.338Z,23.9
2022-08-23T02:44:51.815Z,23.9
2022-08-23T02:45:54.328Z,23.9
2022-08-23T02:46:56.804Z,23.9
2022-08-23T02:47:59.538Z,23.9
2022-08-23T02:49:02.824Z,23.9
2022-08-23T02:50:05.295Z,23.9
2022-08-23T02:51:07.773Z,23.9
2022-08-23T02:52:09.944Z,23.9
2022-08-23T02:53:12.145Z,23.9
2022-08-23T02:54:14.067Z,23.8
2022-08-23T02:55:16.544Z,23.9
2022-08-23T02:57:23.465Z,23.9
2022-08-23T02:58:26.321Z,23.9
2022-08-23T02:59:28.791Z,23.8
2022-08-23T03:00:31.262Z,23.9
2022-08-23T03:01:33.734Z,23.8
2022-08-23T03:02:36.359Z,23.9
2022-08-23T03:03:38.839Z,23.8
2022-08-23T03:04:41.328Z,23.8
2022-08-23T03:05:43.792Z,23.9
2022-08-23T03:06:46.006Z,23.9
2022-08-23T03:07:47.918Z,23.9
2022-08-23T03:08:50.404Z,23.9
2022-08-23T03:09:53.628Z,23.9
2022-08-23T03:10:55.269Z,23.8
2022-08-23T03:11:57.738Z,23.8
2022-08-23T03:13:00.215Z,23.8
2022-08-23T03:14:02.684Z,23.8
2022-08-23T03:15:06.279Z,23.9
2022-08-23T03:16:09.559Z,23.9
2022-08-23T03:17:12.044Z,23.9
2022-08-23T03:18:13.962Z,23.9
2022-08-23T03:19:16.456Z,23.8
2022-08-23T03:20:18.645Z,24
2022-08-23T03:21:20.952Z,23.9
2022-08-23T03:22:22.883Z,23.8
2022-08-23T03:23:25.358Z,23.9
2022-08-23T03:24:27.829Z,23.9
2022-08-23T03:25:30.041Z,23.9
2022-08-23T03:26:32.506Z,23.9
2022-08-23T03:28:39.709Z,23.8
2022-08-23T03:29:42.184Z,24
2022-08-23T03:30:44.390Z,23.9
2022-08-23T03:31:46.875Z,23.8
2022-08-23T03:32:49.950Z,23.9
2022-08-23T03:33:52.154Z,23.9
2022-08-23T03:34:54.618Z,23.9
2022-08-23T03:35:56.817Z,23.9
2022-08-23T03:36:59.025Z,23.9
2022-08-23T03:38:01.789Z,23.8
2022-08-23T03:39:04.832Z,23.8
2022-08-23T03:40:07.201Z,23.9
2022-08-23T03:41:10.024Z,23.8
2022-08-23T03:42:12.236Z,23.9
2022-08-23T03:43:14.746Z,23.9
2022-08-23T03:44:17.216Z,23.9
2022-08-23T03:45:19.681Z,23.9
2022-08-23T03:46:22.164Z,23.9
2022-08-23T03:47:24.641Z,23.8
2022-08-23T03:48:27.120Z,23.9
2022-08-23T03:49:29.311Z,23.9
2022-08-23T03:50:30.941Z,23.8
2022-08-23T03:51:33.142Z,23.8
2022-08-23T03:52:35.335Z,23.9
2022-08-23T03:53:38.014Z,23.9
2022-08-23T03:54:43.223Z,23.8
2022-08-23T03:55:45.429Z,24
2022-08-23T03:56:47.914Z,23.9
2022-08-23T03:57:50.119Z,23.9
2022-08-23T03:58:52.609Z,23.8
2022-08-23T03:59:54.502Z,23.9
2022-08-23T04:00:57.007Z,23.9
2022-08-23T04:01:59.027Z,23.8
2022-08-23T04:03:01.617Z,23.9
2022-08-23T04:04:03.511Z,23.9
2022-08-23T04:05:05.994Z,23.8
2022-08-23T04:06:07.914Z,23.9
2022-08-23T04:07:10.121Z,23.9
2022-08-23T04:08:12.019Z,23.9
2022-08-23T04:09:14.493Z,23.9
2022-08-23T04:10:16.958Z,23.7
2022-08-23T04:11:19.427Z,23.9
2022-08-23T04:12:21.618Z,23.9
2022-08-23T04:13:24.092Z,23.8
2022-08-23T04:14:30.071Z,23.8
2022-08-23T04:15:32.017Z,23.8
2022-08-23T04:16:34.485Z,23.8
2022-08-23T04:17:36.980Z,23.9
2022-08-23T04:18:39.167Z,23.9
2022-08-23T04:19:41.891Z,23.9
2022-08-23T04:20:44.078Z,23.8
2022-08-23T04:21:46.281Z,23.8
2022-08-23T04:22:49.013Z,23.9
2022-08-23T04:23:51.202Z,23.9
2022-08-23T04:24:54.111Z,23.8
2022-08-23T04:25:56.972Z,23.8
2022-08-23T04:27:04.909Z,23.9
2022-08-23T04:28:07.393Z,23.9
2022-08-23T04:29:10.850Z,23.9
2022-08-23T04:31:22.865Z,23.9
2022-08-23T04:33:31.805Z,23.9
2022-08-23T04:34:34.495Z,23.8
2022-08-23T04:35:38.357Z,23.9
2022-08-23T04:37:45.830Z,23.9
2022-08-23T04:38:48.307Z,23.7
2022-08-23T04:40:55.780Z,23.8
2022-08-23T04:41:57.978Z,23.7
2022-08-23T04:43:00.192Z,23.8
2022-08-23T04:44:02.691Z,23.8
2022-08-23T04:45:04.881Z,23.8
2022-08-23T04:46:07.099Z,23.9
2022-08-23T04:47:09.283Z,23.8
2022-08-23T04:48:12.711Z,23.8
2022-08-23T04:49:15.181Z,23.7
2022-08-23T04:50:17.659Z,23.8
2022-08-23T04:51:19.849Z,23.8
2022-08-23T04:52:22.328Z,23.8
2022-08-23T04:53:24.790Z,23.8
2022-08-23T04:54:27.269Z,23.9
2022-08-23T04:55:29.739Z,23.9
2022-08-23T04:56:36.106Z,23.7
2022-08-23T04:57:38.589Z,23.8
2022-08-23T04:58:40.803Z,23.9
2022-08-23T04:59:43.304Z,23.7
2022-08-23T05:01:50.777Z,23.8
2022-08-23T05:02:53.254Z,23.8
2022-08-23T05:03:55.912Z,23.8
2022-08-23T05:04:58.138Z,23.7
2022-08-23T05:06:00.033Z,23.9
2022-08-23T05:07:02.507Z,23.8
2022-08-23T05:08:04.700Z,23.8
2022-08-23T05:09:07.193Z,23.8
2022-08-23T05:10:09.384Z,23.7
2022-08-23T05:11:11.585Z,23.8
2022-08-23T05:12:14.063Z,23.8
2022-08-23T05:13:15.976Z,23.8
2022-08-23T05:14:18.180Z,23.8
2022-08-23T05:15:20.662Z,23.8
2022-08-23T05:16:22.853Z,23.9
2022-08-23T05:17:25.332Z,23.9
2022-08-23T05:18:27.817Z,23.8
2022-08-23T05:19:30.303Z,23.8
2022-08-23T05:20:32.491Z,23.8
2022-08-23T05:21:34.708Z,23.8
2022-08-23T05:22:37.177Z,23.7
2022-08-23T05:23:39.806Z,23.9
2022-08-23T05:24:42.914Z,23.8
2022-08-23T05:25:45.386Z,23.9
2022-08-23T05:26:47.860Z,23.7
2022-08-23T05:27:50.338Z,23.7
2022-08-23T05:28:52.245Z,23.8
2022-08-23T05:29:54.481Z,23.9
2022-08-23T05:30:57.777Z,23.8
2022-08-23T05:32:03.360Z,23.9
2022-08-23T05:33:07.386Z,23.8
2022-08-23T05:34:09.871Z,23.8
2022-08-23T05:35:12.349Z,23.8
2022-08-23T05:36:16.233Z,23.7
2022-08-23T05:37:18.449Z,23.7
2022-08-23T05:38:21.215Z,23.8
2022-08-23T05:40:28.411Z,23.8
2022-08-23T05:42:38.342Z,23.9
2022-08-23T05:43:40.818Z,23.7
2022-08-23T05:44:43.871Z,23.8
2022-08-23T05:45:46.389Z,23.8
2022-08-23T05:46:49.599Z,23.9
2022-08-23T05:48:57.564Z,23.9
2022-08-23T05:50:00.048Z,23.9
2022-08-23T05:51:02.519Z,23.8
2022-08-23T05:52:04.999Z,23.8
2022-08-23T05:53:07.473Z,23.8
2022-08-23T05:54:10.535Z,24
2022-08-23T05:55:12.459Z,23.9
2022-08-23T05:56:14.943Z,23.8
2022-08-23T05:57:17.140Z,23.7
2022-08-23T05:58:19.102Z,23.8
2022-08-23T05:59:21.590Z,23.8
2022-08-23T06:01:29.219Z,23.7
2022-08-23T06:02:32.035Z,23.8
2022-08-23T06:03:34.503Z,23.8
2022-08-23T06:04:36.999Z,23.8
2022-08-23T06:05:39.478Z,23.8
2022-08-23T06:06:41.436Z,23.9
2022-08-23T06:07:43.909Z,23.8
2022-08-23T06:08:52.223Z,23.9
2022-08-23T06:09:54.711Z,23.9
2022-08-23T06:10:57.180Z,23.9
2022-08-23T06:11:59.651Z,23.7
2022-08-23T06:13:02.126Z,23.7
2022-08-23T06:14:05.011Z,23.8
2022-08-23T06:15:07.591Z,23.8
2022-08-23T06:17:14.538Z,23.7
2022-08-23T06:18:16.741Z,23.8
2022-08-23T06:19:19.228Z,23.8
2022-08-23T06:20:21.537Z,23.7
2022-08-23T06:21:23.661Z,23.8
2022-08-23T06:22:25.874Z,23.8
2022-08-23T06:23:28.359Z,23.8
2022-08-23T06:24:30.843Z,23.8
2022-08-23T06:25:33.331Z,23.8
2022-08-23T06:26:35.249Z,23.7
2022-08-23T06:27:37.715Z,23.8
2022-08-23T06:29:45.194Z,23.8
2022-08-23T06:30:47.813Z,23.9
2022-08-23T06:31:49.998Z,23.8
2022-08-23T06:32:52.588Z,23.8
2022-08-23T06:33:55.500Z,23.8
2022-08-23T06:36:03.029Z,23.7
2022-08-23T06:37:05.523Z,23.9
2022-08-23T06:38:07.440Z,23.7
2022-08-23T06:39:09.646Z,23.8
2022-08-23T06:40:11.953Z,23.8
2022-08-23T06:41:18.508Z,23.7
2022-08-23T06:43:25.996Z,23.8
2022-08-23T06:44:28.219Z,23.8
2022-08-23T06:46:35.795Z,23.9
2022-08-23T06:47:38.305Z,23.8
2022-08-23T06:48:39.989Z,23.8
2022-08-23T06:50:48.278Z,23.8
2022-08-23T06:51:52.906Z,23.8
2022-08-23T06:52:56.375Z,23.7
2022-08-23T06:55:04.551Z,23.6
2022-08-23T06:56:11.232Z,23.8
2022-08-23T06:57:13.709Z,23.8
2022-08-23T06:58:16.186Z,23.7
2022-08-23T06:59:18.430Z,23.9
2022-08-23T07:00:23.154Z,23.8
2022-08-23T07:02:30.851Z,23.7
2022-08-23T07:04:37.454Z,23.9
2022-08-23T07:05:39.385Z,23.8
2022-08-23T07:06:41.591Z,23.8
2022-08-23T07:07:45.208Z,23.8
2022-08-23T07:08:47.699Z,23.7
2022-08-23T07:09:49.901Z,23.8
2022-08-23T07:10:52.370Z,23.7
2022-08-23T07:11:54.875Z,23.8
2022-08-23T07:12:57.706Z,23.8
2022-08-23T07:14:00.531Z,23.8
2022-08-23T07:15:02.738Z,23.8
2022-08-23T07:16:05.114Z,23.7
2022-08-23T07:17:07.963Z,23.8
2022-08-23T07:19:15.475Z,23.8
2022-08-23T07:20:17.986Z,23.8
2022-08-23T07:21:20.466Z,23.8
2022-08-23T07:22:22.946Z,23.8
2022-08-23T07:23:25.419Z,23.8
2022-08-23T07:25:32.344Z,23.7
2022-08-23T07:26:34.823Z,23.8
2022-08-23T07:27:37.033Z,23.7
2022-08-23T07:28:41.627Z,23.8
2022-08-23T07:29:44.592Z,23.7
2022-08-23T07:30:47.088Z,23.8
2022-08-23T07:31:49.382Z,23.8
2022-08-23T07:32:52.167Z,23.8
2022-08-23T07:33:54.107Z,23.8
2022-08-23T07:35:00.077Z,23.8
2022-08-23T07:36:03.361Z,23.7
2022-08-23T07:38:11.700Z,23.7
2022-08-23T07:39:13.901Z,23.8
2022-08-23T07:41:21.374Z,23.8
2022-08-23T07:42:24.807Z,23.7
2022-08-23T07:43:28.202Z,23.8
2022-08-23T07:44:35.280Z,23.7
2022-08-23T07:45:39.492Z,23.7
2022-08-23T07:46:43.478Z,23.7
2022-08-23T07:49:56.220Z,23.8
2022-08-23T07:51:01.165Z,23.6
2022-08-23T07:52:04.515Z,23.7
2022-08-23T07:53:06.460Z,23.7
2022-08-23T07:54:08.929Z,23.7
2022-08-23T07:55:11.406Z,23.7
2022-08-23T07:56:13.873Z,23.7
2022-08-23T07:57:16.062Z,23.7
2022-08-23T07:58:20.089Z,23.8
2022-08-23T07:59:22.570Z,23.8
2022-08-23T08:00:25.044Z,23.7
2022-08-23T08:01:27.327Z,23.6
2022-08-23T08:02:29.826Z,23.7
2022-08-23T08:03:32.478Z,23.8
2022-08-23T08:04:34.417Z,23.8
2022-08-23T08:05:36.909Z,23.8
2022-08-23T08:06:39.117Z,23.7
2022-08-23T08:07:41.564Z,23.7
2022-08-23T08:08:43.762Z,23.8
2022-08-23T08:09:46.279Z,23.9
2022-08-23T08:10:48.196Z,23.7
2022-08-23T08:11:50.691Z,23.8
2022-08-23T08:12:53.179Z,23.8
2022-08-23T08:13:55.403Z,23.8
2022-08-23T08:14:57.880Z,23.7
2022-08-23T08:16:00.240Z,23.8
2022-08-23T08:17:02.497Z,23.8
2022-08-23T08:18:05.297Z,23.7
2022-08-23T08:19:09.574Z,23.7
2022-08-23T08:20:11.791Z,23.8
2022-08-23T08:21:14.271Z,23.8
2022-08-23T08:22:15.942Z,23.8
2022-08-23T08:23:18.145Z,23.8
2022-08-23T08:24:20.631Z,23.7
2022-08-23T08:25:23.106Z,23.8
2022-08-23T08:26:25.595Z,23.8
2022-08-23T08:27:27.789Z,23.8
2022-08-23T08:28:30.279Z,23.8
2022-08-23T08:29:32.487Z,23.6
2022-08-23T08:30:34.688Z,23.7
2022-08-23T08:31:36.726Z,23.8
2022-08-23T08:33:44.427Z,23.6
2022-08-23T08:34:46.926Z,23.8
2022-08-23T08:36:54.521Z,23.9
2022-08-23T08:38:02.038Z,23.8
2022-08-23T08:39:04.278Z,23.7
2022-08-23T08:40:12.251Z,23.8
2022-08-23T08:41:14.660Z,23.8
2022-08-23T08:42:17.746Z,23.7
2022-08-23T08:43:20.468Z,23.7
2022-08-23T08:44:23.189Z,23.7
2022-08-23T08:45:26.909Z,23.7
2022-08-23T08:46:30.692Z,23.7
2022-08-23T08:47:33.080Z,23.8
2022-08-23T08:48:35.575Z,23.8
2022-08-23T08:49:38.055Z,23.6
2022-08-23T08:50:40.527Z,23.7
2022-08-23T08:51:42.739Z,23.7
2022-08-23T08:52:44.942Z,23.7
2022-08-23T08:53:47.168Z,23.8
2022-08-23T08:55:54.638Z,23.7
2022-08-23T08:57:03.039Z,23.8
2022-08-23T08:58:05.525Z,23.8
2022-08-23T08:59:07.724Z,23.7
2022-08-23T09:00:10.216Z,23.8
2022-08-23T09:01:12.689Z,23.8
2022-08-23T09:03:20.102Z,23.6
2022-08-23T09:04:22.936Z,23.8
2022-08-23T09:05:25.409Z,23.7
2022-08-23T09:06:27.902Z,23.7
2022-08-23T09:07:31.932Z,23.8
2022-08-23T09:08:35.715Z,23.8
2022-08-23T09:09:38.181Z,23.7
2022-08-23T09:10:40.677Z,23.8
2022-08-23T09:11:42.884Z,23.8
2022-08-23T09:12:45.379Z,23.7
2022-08-23T09:13:47.875Z,23.7
2022-08-23T09:14:50.082Z,23.6
2022-08-23T09:15:52.637Z,23.7
2022-08-23T09:16:55.273Z,23.8
2022-08-23T09:17:57.334Z,23.8
2022-08-23T09:18:59.735Z,23.8
2022-08-23T09:20:01.668Z,23.7
2022-08-23T09:21:04.154Z,23.8
2022-08-23T09:22:06.642Z,23.7
2022-08-23T09:23:09.114Z,23.8
2022-08-23T09:24:11.085Z,23.7
2022-08-23T09:25:13.566Z,23.8
2022-08-23T09:26:16.050Z,23.7
2022-08-23T09:27:19.922Z,23.7
2022-08-23T09:28:22.142Z,23.6
2022-08-23T09:29:24.629Z,23.8
2022-08-23T09:30:27.115Z,23.8
2022-08-23T09:32:34.324Z,23.7
2022-08-23T09:33:36.510Z,23.8
2022-08-23T09:34:38.722Z,23.7
2022-08-23T09:35:41.212Z,23.7
2022-08-23T09:36:43.409Z,23.8
2022-08-23T09:37:45.893Z,23.8
2022-08-23T09:38:47.843Z,23.8
2022-08-23T09:39:50.397Z,23.8
2022-08-23T09:40:53.365Z,23.7
2022-08-23T09:41:55.673Z,23.7
2022-08-23T09:42:58.501Z,23.8
2022-08-23T09:44:00.995Z,23.8
2022-08-23T09:45:03.193Z,23.8
2022-08-23T09:46:05.513Z,23.7
2022-08-23T09:47:07.894Z,23.8
2022-08-23T09:48:10.378Z,23.7
2022-08-23T09:49:12.850Z,23.6
2022-08-23T09:50:15.335Z,23.7
2022-08-23T09:51:17.531Z,23.7
2022-08-23T09:53:25.021Z,23.8
2022-08-23T09:54:27.519Z,23.7
2022-08-23T09:55:30.005Z,23.7
2022-08-23T09:56:32.212Z,23.8
2022-08-23T09:57:34.429Z,23.7
2022-08-23T09:58:36.092Z,23.7
2022-08-23T09:59:38.583Z,23.7
2022-08-23T10:00:41.075Z,23.7
2022-08-23T10:01:43.557Z,23.8
2022-08-23T10:02:45.369Z,23.8
2022-08-23T10:03:47.862Z,23.8
2022-08-23T10:04:50.164Z,23.7
2022-08-23T10:05:52.650Z,23.7
2022-08-23T10:06:54.290Z,23.8
2022-08-23T10:07:56.233Z,23.7
2022-08-23T10:08:58.723Z,23.7
2022-08-23T10:10:02.756Z,23.7
2022-08-23T10:11:05.281Z,23.7
2022-08-23T10:12:10.857Z,23.7
2022-08-23T10:13:13.535Z,23.7
2022-08-23T10:14:18.285Z,23.7
2022-08-23T10:15:21.608Z,23.8
2022-08-23T10:16:23.751Z,23.8
2022-08-23T10:17:26.653Z,23.7
2022-08-23T10:18:28.835Z,23.8
2022-08-23T10:19:31.334Z,23.8
2022-08-23T10:20:33.813Z,23.8
2022-08-23T10:21:37.906Z,23.8
2022-08-23T10:22:40.262Z,23.7
2022-08-23T10:23:42.491Z,23.8
2022-08-23T10:24:45.016Z,23.8
2022-08-23T10:25:46.967Z,23.7
2022-08-23T10:26:48.899Z,23.8
2022-08-23T10:27:51.128Z,23.7
2022-08-23T10:28:53.664Z,23.8
2022-08-23T10:29:55.615Z,23.7
2022-08-23T10:30:58.378Z,23.8
2022-08-23T10:32:00.788Z,23.7
2022-08-23T10:33:03.296Z,23.7
2022-08-23T10:34:05.567Z,23.8
2022-08-23T10:35:07.497Z,23.7
2022-08-23T10:36:09.727Z,23.7
2022-08-23T10:37:12.208Z,23.7
2022-08-23T10:38:14.711Z,23.7
2022-08-23T10:39:16.906Z,23.8
2022-08-23T10:40:19.544Z,23.7
2022-08-23T10:41:22.159Z,23.6
2022-08-23T10:42:26.493Z,23.7
2022-08-23T10:43:28.982Z,23.8
2022-08-23T10:44:31.475Z,23.8
2022-08-23T10:45:33.667Z,23.7
2022-08-23T10:46:36.293Z,23.8
2022-08-23T10:47:38.512Z,23.7
2022-08-23T10:48:40.454Z,23.7
2022-08-23T10:49:42.950Z,23.8
2022-08-23T10:51:52.440Z,23.7
2022-08-23T10:52:54.376Z,23.7
2022-08-23T10:53:56.854Z,23.7
2022-08-23T10:54:59.048Z,23.8
2022-08-23T10:56:01.328Z,23.7
2022-08-23T10:57:03.874Z,23.8
2022-08-23T10:58:06.363Z,23.7
2022-08-23T10:59:08.855Z,23.7
2022-08-23T11:00:11.342Z,23.8
2022-08-23T11:01:13.867Z,23.8
2022-08-23T11:02:16.598Z,23.6
2022-08-23T11:03:18.939Z,23.7
2022-08-23T11:04:21.163Z,23.7
2022-08-23T11:05:23.656Z,23.7
2022-08-23T11:06:26.137Z,23.8
2022-08-23T11:07:28.356Z,23.7
2022-08-23T11:08:30.572Z,23.8
2022-08-23T11:09:32.514Z,23.7
2022-08-23T11:10:35.363Z,23.7
2022-08-23T11:11:37.855Z,23.7
2022-08-23T11:12:40.079Z,23.8
2022-08-23T11:13:42.300Z,23.7
2022-08-23T11:14:44.478Z,23.7
2022-08-23T11:15:47.111Z,23.8
2022-08-23T11:16:49.786Z,23.6
2022-08-23T11:17:52.008Z,23.7
2022-08-23T11:18:53.641Z,23.7
2022-08-23T11:19:55.842Z,23.7
2022-08-23T11:20:58.322Z,23.7
2022-08-23T11:22:00.544Z,23.7
2022-08-23T11:23:02.774Z,23.7
2022-08-23T11:24:05.262Z,23.7
2022-08-23T11:25:07.765Z,23.7
2022-08-23T11:26:10.257Z,23.8
2022-08-23T11:28:17.732Z,23.6
2022-08-23T11:29:20.230Z,23.7
2022-08-23T11:30:22.417Z,23.7
2022-08-23T11:31:24.444Z,23.7
2022-08-23T11:33:31.233Z,23.7
2022-08-23T11:34:33.446Z,23.8
2022-08-23T11:35:35.919Z,23.7
2022-08-23T11:36:42.605Z,23.8
2022-08-23T11:37:45.117Z,23.7
2022-08-23T11:38:47.333Z,23.8
2022-08-23T11:39:49.668Z,23.6
2022-08-23T11:40:52.245Z,23.7
2022-08-23T11:41:54.175Z,23.6
2022-08-23T11:42:56.100Z,23.6
2022-08-23T11:43:58.310Z,23.7
2022-08-23T11:45:00.785Z,23.7
2022-08-23T11:46:03.095Z,23.7
2022-08-23T11:47:04.659Z,23.6
2022-08-23T11:48:07.163Z,23.7
2022-08-23T11:49:09.379Z,23.7
2022-08-23T11:50:11.866Z,23.7
2022-08-23T11:51:14.079Z,23.8
2022-08-23T11:52:16.568Z,23.7
2022-08-23T11:53:18.773Z,23.8
2022-08-23T11:54:21.258Z,23.7
2022-08-23T11:55:24.865Z,23.7
2022-08-23T11:56:27.208Z,23.8
2022-08-23T11:57:29.409Z,23.7
2022-08-23T11:58:31.904Z,23.7
2022-08-23T11:59:34.385Z,23.7
2022-08-23T12:00:40.823Z,23.7
2022-08-23T12:01:43.326Z,23.8
2022-08-23T12:02:46.849Z,23.7
2022-08-23T12:03:50.813Z,23.7
2022-08-23T12:04:54.076Z,23.7
2022-08-23T12:05:56.556Z,23.7
2022-08-23T12:06:59.065Z,23.8
2022-08-23T12:08:02.016Z,23.8
2022-08-23T12:09:04.805Z,23.7
2022-08-23T12:10:07.016Z,23.8
2022-08-23T12:11:09.589Z,23.7
2022-08-23T12:12:12.079Z,23.8
2022-08-23T12:13:14.564Z,23.7
2022-08-23T12:14:16.751Z,23.7
2022-08-23T12:15:18.959Z,23.7
2022-08-23T12:16:21.340Z,23.8
2022-08-23T12:17:25.381Z,23.8
2022-08-23T12:18:32.697Z,23.6
2022-08-23T12:20:39.938Z,23.6
2022-08-23T12:21:42.679Z,23.6
2022-08-23T12:22:46.394Z,23.7
2022-08-23T12:23:50.647Z,23.7
2022-08-23T12:24:53.408Z,23.8
2022-08-23T12:25:55.902Z,23.7
2022-08-23T12:26:58.400Z,23.7
2022-08-23T12:28:00.697Z,23.8
2022-08-23T12:29:04.006Z,23.8
2022-08-23T12:30:06.199Z,23.7
2022-08-23T12:32:13.408Z,23.7
2022-08-23T12:33:15.900Z,23.8
2022-08-23T12:34:17.841Z,23.8
2022-08-23T12:35:20.324Z,23.6
2022-08-23T12:36:22.797Z,23.7
2022-08-23T12:37:25.016Z,23.8
2022-08-23T12:38:27.491Z,23.8
2022-08-23T12:39:29.702Z,23.8
2022-08-23T12:40:32.198Z,23.8
2022-08-23T12:41:35.857Z,23.7
2022-08-23T12:42:38.054Z,23.8
2022-08-23T12:43:40.274Z,23.8
2022-08-23T12:44:42.454Z,23.7
2022-08-23T12:45:44.119Z,23.7
2022-08-23T12:46:46.287Z,23.8
2022-08-23T12:47:49.087Z,23.7
2022-08-23T12:48:51.299Z,23.7
2022-08-23T12:49:53.784Z,23.7
2022-08-23T12:50:55.992Z,23.7
2022-08-23T12:51:58.183Z,23.8
2022-08-23T12:53:00.752Z,23.7
2022-08-23T12:54:04.024Z,23.7
2022-08-23T12:55:05.976Z,23.7
2022-08-23T12:56:08.478Z,23.7
2022-08-23T12:57:10.857Z,23.7
2022-08-23T12:58:13.181Z,23.8
2022-08-23T12:59:15.390Z,23.7
2022-08-23T13:00:19.014Z,23.9
2022-08-23T13:01:21.891Z,23.7
2022-08-23T13:02:25.252Z,23.7
2022-08-23T13:03:28.121Z,23.7
2022-08-23T13:04:30.059Z,23.8
2022-08-23T13:05:31.969Z,23.8
2022-08-23T13:06:34.201Z,23.7
2022-08-23T13:07:38.906Z,23.8
2022-08-23T13:08:41.394Z,23.7
2022-08-23T13:10:48.877Z,23.8
2022-08-23T13:11:51.392Z,23.8
2022-08-23T13:12:54.947Z,23.7
2022-08-23T13:13:57.438Z,23.8
2022-08-23T13:14:59.937Z,23.8
2022-08-23T13:16:01.779Z,23.7
2022-08-23T13:17:04.574Z,23.8
2022-08-23T13:18:06.523Z,23.7
2022-08-23T13:19:10.827Z,23.7
2022-08-23T13:20:13.319Z,23.8
2022-08-23T13:21:17.467Z,23.7
2022-08-23T13:22:20.171Z,23.8
2022-08-23T13:23:22.655Z,23.7
2022-08-23T13:26:35.140Z,23.8
2022-08-23T13:27:38.854Z,23.8
2022-08-23T13:28:41.345Z,23.7
2022-08-23T13:29:43.288Z,23.8
2022-08-23T13:30:45.273Z,23.9
2022-08-23T13:31:47.408Z,23.7
2022-08-23T13:32:50.128Z,23.8
2022-08-23T13:33:53.626Z,23.9
2022-08-23T13:34:56.116Z,23.8
2022-08-23T13:35:59.474Z,23.8
2022-08-23T13:37:04.280Z,23.8
2022-08-23T13:38:06.767Z,23.8
2022-08-23T13:39:09.596Z,23.7
2022-08-23T13:40:11.974Z,23.8
2022-08-23T13:41:14.451Z,23.8
2022-08-23T13:42:16.660Z,23.8
2022-08-23T13:43:20.949Z,23.8
2022-08-23T13:44:23.532Z,23.8
2022-08-23T13:45:25.753Z,23.7
2022-08-23T13:46:28.415Z,23.8
2022-08-23T13:48:36.327Z,23.8
2022-08-23T13:49:38.289Z,23.8
2022-08-23T13:50:40.494Z,23.7
2022-08-23T13:51:42.692Z,23.8
2022-08-23T13:53:50.171Z,23.8
2022-08-23T13:54:53.699Z,23.8
2022-08-23T13:55:55.895Z,23.8
2022-08-23T13:56:57.835Z,23.9
2022-08-23T13:58:00.020Z,23.7
2022-08-23T13:59:02.511Z,23.8
2022-08-23T14:00:04.440Z,23.7
2022-08-23T14:01:06.987Z,23.8
2022-08-23T14:02:09.287Z,23.8
2022-08-23T14:03:11.781Z,23.8
2022-08-23T14:04:14.029Z,23.7
2022-08-23T14:05:16.322Z,23.8
2022-08-23T14:06:18.727Z,23.7
2022-08-23T14:07:20.941Z,23.7
2022-08-23T14:08:23.425Z,23.7
2022-08-23T14:09:25.914Z,23.8
2022-08-23T14:10:28.402Z,23.8
2022-08-23T14:11:30.894Z,23.8
2022-08-23T14:12:34.546Z,23.8
2022-08-23T14:13:37.530Z,23.7
2022-08-23T14:14:39.434Z,23.6
2022-08-23T14:16:46.728Z,23.8
2022-08-23T14:17:49.407Z,23.8
2022-08-23T14:21:01.601Z,23.8
2022-08-23T14:22:04.086Z,23.6
2022-08-23T14:24:11.301Z,23.8
2022-08-23T14:25:13.787Z,23.7
2022-08-23T14:26:16.270Z,23.8
2022-08-23T14:27:18.755Z,23.8
2022-08-23T14:28:21.248Z,23.8
2022-08-23T14:29:25.022Z,23.7
2022-08-23T14:31:32.238Z,23.8
2022-08-23T14:32:34.182Z,23.7
2022-08-23T14:33:36.125Z,23.8
2022-08-23T14:34:38.612Z,23.8
2022-08-23T14:35:40.799Z,23.7
2022-08-23T14:38:53.278Z,23.8
2022-08-23T14:39:55.586Z,23.8
2022-08-23T14:40:58.269Z,23.8
2022-08-23T14:41:59.931Z,23.8
2022-08-23T14:43:02.800Z,23.7
2022-08-23T14:44:06.011Z,23.7
2022-08-23T14:45:08.241Z,23.7
2022-08-23T14:46:10.287Z,23.7
2022-08-23T14:47:12.487Z,23.7
2022-08-23T14:48:14.701Z,23.8
2022-08-23T14:49:17.732Z,23.8
2022-08-23T14:50:20.226Z,23.7
2022-08-23T14:51:22.727Z,23.7
2022-08-23T14:52:24.916Z,23.8
2022-08-23T14:53:27.422Z,23.8
2022-08-23T14:54:29.396Z,23.8
2022-08-23T14:55:31.883Z,23.7
2022-08-23T14:56:34.367Z,23.8
2022-08-23T14:57:36.584Z,23.8
2022-08-23T14:58:38.530Z,23.8
2022-08-23T14:59:40.469Z,23.8